Amberg, Wisconsin
Current Conditions -  °F | °C
As of 3:54 PM on Saturday 25 Oct 2014 (Local Time) from KIMT Reporting Station
Clear Clear  
Wind Chill: 16°   Ceiling: Unl
Heat Index: 16°   Visibility: 10mi
Dew Point: -6°   Wind: 24mph
Humidity: 22%   Direction: 310°NW
Pressure: 29.76"   Gusts: 35mph
Location:  45.5°N, 87.99°W
Report Text: KIMT 252054Z AUTO 31021G30KT 10SM CLR 16/M06 A2976 RMK AO2 PK WND 29036/2040 SLP080 T01611056 53001
Loading
Personal Weather Stations






























Interactive Weather Map
Tropical Storm Tracking
New forecast layout! Learn more

10-Day Weather Forecast

Advertisements
Track Severe Weather on mobile